sensor_id;sensor_type;location;lat;lon;timestamp;temperature;humidity
44229;DHT22;29904;51.058;5.378;2022-12-19T00:00:46;2.90;99.90
44229;DHT22;29904;51.058;5.378;2022-12-19T00:03:12;2.90;99.90
44229;DHT22;29904;51.058;5.378;2022-12-19T00:05:40;3.00;99.90
44229;DHT22;29904;51.058;5.378;2022-12-19T00:08:15;3.00;99.90
44229;DHT22;29904;51.058;5.378;2022-12-19T00:11:04;3.00;99.90
44229;DHT22;29904;51.058;5.378;2022-12-19T00:13:31;3.00;99.90
44229;DHT22;29904;51.058;5.378;2022-12-19T00:16:06;3.00;99.90
44229;DHT22;29904;51.058;5.378;2022-12-19T00:18:32;3.00;99.90
44229;DHT22;29904;51.058;5.378;2022-12-19T00:20:59;3.10;99.90
44229;DHT22;29904;51.058;5.378;2022-12-19T00:23:27;3.10;99.90
44229;DHT22;29904;51.058;5.378;2022-12-19T00:25:53;3.10;99.90
44229;DHT22;29904;51.058;5.378;2022-12-19T00:28:20;3.10;99.90
44229;DHT22;29904;51.058;5.378;2022-12-19T00:30:46;3.20;99.90
44229;DHT22;29904;51.058;5.378;2022-12-19T00:33:14;3.30;99.90
44229;DHT22;29904;51.058;5.378;2022-12-19T00:35:40;3.30;99.90
44229;DHT22;29904;51.058;5.378;2022-12-19T00:38:05;3.30;99.90
44229;DHT22;29904;51.058;5.378;2022-12-19T00:40:31;3.40;99.90
44229;DHT22;29904;51.058;5.378;2022-12-19T00:42:57;3.50;99.90
44229;DHT22;29904;51.058;5.378;2022-12-19T00:45:26;3.50;99.90
44229;DHT22;29904;51.058;5.378;2022-12-19T00:47:53;3.60;99.90
44229;DHT22;29904;51.058;5.378;2022-12-19T00:50:18;3.60;99.90
44229;DHT22;29904;51.058;5.378;2022-12-19T00:52:44;3.70;99.90
44229;DHT22;29904;51.058;5.378;2022-12-19T00:55:12;3.70;99.90
44229;DHT22;29904;51.058;5.378;2022-12-19T00:57:38;3.70;99.90
44229;DHT22;29904;51.058;5.378;2022-12-19T01:00:04;3.80;99.90
44229;DHT22;29904;51.058;5.378;2022-12-19T01:02:31;3.80;99.90
44229;DHT22;29904;51.058;5.378;2022-12-19T01:04:57;3.80;99.90
44229;DHT22;29904;51.058;5.378;2022-12-19T01:07:23;3.90;99.90
44229;DHT22;29904;51.058;5.378;2022-12-19T01:09:50;3.90;99.90
44229;DHT22;29904;51.058;5.378;2022-12-19T01:12:17;4.00;99.90
44229;DHT22;29904;51.058;5.378;2022-12-19T01:15:03;4.00;99.90
44229;DHT22;29904;51.058;5.378;2022-12-19T01:17:29;4.00;99.90
44229;DHT22;29904;51.058;5.378;2022-12-19T01:19:55;4.00;99.90
44229;DHT22;29904;51.058;5.378;2022-12-19T01:22:21;4.10;99.90
44229;DHT22;29904;51.058;5.378;2022-12-19T01:24:46;4.20;99.90
44229;DHT22;29904;51.058;5.378;2022-12-19T01:27:12;4.20;99.90
44229;DHT22;29904;51.058;5.378;2022-12-19T01:29:38;4.30;99.90
44229;DHT22;29904;51.058;5.378;2022-12-19T01:32:04;4.30;99.90
44229;DHT22;29904;51.058;5.378;2022-12-19T01:34:29;4.30;99.90
44229;DHT22;29904;51.058;5.378;2022-12-19T01:36:55;4.40;99.90
44229;DHT22;29904;51.058;5.378;2022-12-19T01:39:21;4.40;99.90
44229;DHT22;29904;51.058;5.378;2022-12-19T01:41:46;4.40;99.90
44229;DHT22;29904;51.058;5.378;2022-12-19T01:44:12;4.50;99.90
44229;DHT22;29904;51.058;5.378;2022-12-19T01:46:41;4.50;99.90
44229;DHT22;29904;51.058;5.378;2022-12-19T01:49:27;4.60;99.90
44229;DHT22;29904;51.058;5.378;2022-12-19T01:51:58;4.60;99.90
44229;DHT22;29904;51.058;5.378;2022-12-19T01:54:29;4.60;99.90
44229;DHT22;29904;51.058;5.378;2022-12-19T01:56:58;4.60;99.90
44229;DHT22;29904;51.058;5.378;2022-12-19T01:59:48;4.60;99.90
44229;DHT22;29904;51.058;5.378;2022-12-19T02:02:40;4.60;99.90
44229;DHT22;29904;51.058;5.378;2022-12-19T02:05:07;4.70;99.90
44229;DHT22;29904;51.058;5.378;2022-12-19T02:07:34;4.70;99.90
44229;DHT22;29904;51.058;5.378;2022-12-19T02:10:00;4.70;99.90
44229;DHT22;29904;51.058;5.378;2022-12-19T02:12:30;4.70;99.90
44229;DHT22;29904;51.058;5.378;2022-12-19T02:15:00;4.70;99.90
44229;DHT22;29904;51.058;5.378;2022-12-19T02:34:08;5.00;99.90
44229;DHT22;29904;51.058;5.378;2022-12-19T02:36:54;5.00;99.90
44229;DHT22;29904;51.058;5.378;2022-12-19T02:39:45;5.10;99.90
44229;DHT22;29904;51.058;5.378;2022-12-19T02:42:18;5.10;99.90
44229;DHT22;29904;51.058;5.378;2022-12-19T02:44:49;5.10;99.90
44229;DHT22;29904;51.058;5.378;2022-12-19T02:47:16;5.20;99.90
44229;DHT22;29904;51.058;5.378;2022-12-19T02:49:43;5.20;99.90
44229;DHT22;29904;51.058;5.378;2022-12-19T02:52:54;5.30;99.90
44229;DHT22;29904;51.058;5.378;2022-12-19T02:55:08;5.30;99.90
44229;DHT22;29904;51.058;5.378;2022-12-19T03:00:21;5.40;99.90
44229;DHT22;29904;51.058;5.378;2022-12-19T03:03:08;5.40;99.90
44229;DHT22;29904;51.058;5.378;2022-12-19T03:06:19;5.40;99.90
44229;DHT22;29904;51.058;5.378;2022-12-19T03:09:07;5.40;99.90
44229;DHT22;29904;51.058;5.378;2022-12-19T03:11:38;5.50;99.90
44229;DHT22;29904;51.058;5.378;2022-12-19T03:14:10;5.50;99.90
44229;DHT22;29904;51.058;5.378;2022-12-19T03:16:37;5.50;99.90
44229;DHT22;29904;51.058;5.378;2022-12-19T03:19:07;5.60;99.90
44229;DHT22;29904;51.058;5.378;2022-12-19T03:21:47;5.60;99.90
44229;DHT22;29904;51.058;5.378;2022-12-19T03:24:15;5.70;99.90
44229;DHT22;29904;51.058;5.378;2022-12-19T03:29:38;5.70;99.90
44229;DHT22;29904;51.058;5.378;2022-12-19T03:32:19;5.70;99.90
44229;DHT22;29904;51.058;5.378;2022-12-19T03:35:03;5.70;99.90
44229;DHT22;29904;51.058;5.378;2022-12-19T03:37:34;5.80;99.90
44229;DHT22;29904;51.058;5.378;2022-12-19T03:40:05;5.80;99.90
44229;DHT22;29904;51.058;5.378;2022-12-19T03:42:34;5.90;99.90
44229;DHT22;29904;51.058;5.378;2022-12-19T03:45:37;5.90;99.90
44229;DHT22;29904;51.058;5.378;2022-12-19T03:48:14;5.90;99.90
44229;DHT22;29904;51.058;5.378;2022-12-19T03:53:35;6.00;99.90
44229;DHT22;29904;51.058;5.378;2022-12-19T03:58:38;6.00;99.90
44229;DHT22;29904;51.058;5.378;2022-12-19T04:01:05;6.10;99.90
44229;DHT22;29904;51.058;5.378;2022-12-19T04:03:31;6.10;99.90
44229;DHT22;29904;51.058;5.378;2022-12-19T04:05:59;6.20;99.90
44229;DHT22;29904;51.058;5.378;2022-12-19T04:08:26;6.20;99.90
44229;DHT22;29904;51.058;5.378;2022-12-19T04:10:56;6.30;99.90
44229;DHT22;29904;51.058;5.378;2022-12-19T04:13:34;6.30;99.90
44229;DHT22;29904;51.058;5.378;2022-12-19T04:18:56;6.40;99.90
44229;DHT22;29904;51.058;5.378;2022-12-19T04:21:29;6.50;99.90
44229;DHT22;29904;51.058;5.378;2022-12-19T04:24:07;6.50;99.90
44229;DHT22;29904;51.058;5.378;2022-12-19T04:26:36;6.50;99.90
44229;DHT22;29904;51.058;5.378;2022-12-19T04:29:03;6.60;99.90
44229;DHT22;29904;51.058;5.378;2022-12-19T04:31:30;6.60;99.90
44229;DHT22;29904;51.058;5.378;2022-12-19T04:33:56;6.60;99.90
44229;DHT22;29904;51.058;5.378;2022-12-19T04:36:24;6.60;99.90
44229;DHT22;29904;51.058;5.378;2022-12-19T04:38:51;6.70;99.90
44229;DHT22;29904;51.058;5.378;2022-12-19T04:41:16;6.80;99.90
44229;DHT22;29904;51.058;5.378;2022-12-19T04:43:44;6.80;99.90
44229;DHT22;29904;51.058;5.378;2022-12-19T04:46:10;6.80;99.90
44229;DHT22;29904;51.058;5.378;2022-12-19T04:48:35;6.80;99.90
44229;DHT22;29904;51.058;5.378;2022-12-19T04:51:01;6.80;99.90
44229;DHT22;29904;51.058;5.378;2022-12-19T04:53:27;6.90;99.90
44229;DHT22;29904;51.058;5.378;2022-12-19T04:56:05;6.90;99.90
44229;DHT22;29904;51.058;5.378;2022-12-19T04:58:32;6.90;99.90
44229;DHT22;29904;51.058;5.378;2022-12-19T05:01:02;6.90;99.90
44229;DHT22;29904;51.058;5.378;2022-12-19T05:03:28;7.00;99.90
44229;DHT22;29904;51.058;5.378;2022-12-19T05:06:02;6.90;99.90
44229;DHT22;29904;51.058;5.378;2022-12-19T05:08:28;7.00;99.90
44229;DHT22;29904;51.058;5.378;2022-12-19T05:11:01;7.00;99.90
44229;DHT22;29904;51.058;5.378;2022-12-19T05:13:27;7.00;99.90
44229;DHT22;29904;51.058;5.378;2022-12-19T05:16:01;7.00;99.90
44229;DHT22;29904;51.058;5.378;2022-12-19T05:18:27;7.00;99.90
44229;DHT22;29904;51.058;5.378;2022-12-19T05:20:53;7.10;99.90
44229;DHT22;29904;51.058;5.378;2022-12-19T05:23:21;7.10;99.90
44229;DHT22;29904;51.058;5.378;2022-12-19T05:25:47;7.10;99.90
44229;DHT22;29904;51.058;5.378;2022-12-19T05:28:13;7.20;99.90
44229;DHT22;29904;51.058;5.378;2022-12-19T05:30:39;7.20;99.90
44229;DHT22;29904;51.058;5.378;2022-12-19T05:33:05;7.20;99.90
44229;DHT22;29904;51.058;5.378;2022-12-19T05:35:33;7.20;99.90
44229;DHT22;29904;51.058;5.378;2022-12-19T05:37:59;7.30;99.90
44229;DHT22;29904;51.058;5.378;2022-12-19T05:40:26;7.30;99.90
44229;DHT22;29904;51.058;5.378;2022-12-19T05:42:53;7.30;99.90
44229;DHT22;29904;51.058;5.378;2022-12-19T05:45:19;7.30;99.90
44229;DHT22;29904;51.058;5.378;2022-12-19T05:47:47;7.30;99.90
44229;DHT22;29904;51.058;5.378;2022-12-19T05:50:14;7.30;99.90
44229;DHT22;29904;51.058;5.378;2022-12-19T05:52:40;7.30;99.90
44229;DHT22;29904;51.058;5.378;2022-12-19T05:55:08;7.40;99.90
44229;DHT22;29904;51.058;5.378;2022-12-19T05:57:34;7.40;99.90
44229;DHT22;29904;51.058;5.378;2022-12-19T06:00:01;7.40;99.90
44229;DHT22;29904;51.058;5.378;2022-12-19T06:02:31;7.50;99.90
44229;DHT22;29904;51.058;5.378;2022-12-19T06:04:57;7.50;99.90
44229;DHT22;29904;51.058;5.378;2022-12-19T06:07:23;7.50;99.90
44229;DHT22;29904;51.058;5.378;2022-12-19T06:09:50;7.50;99.90
44229;DHT22;29904;51.058;5.378;2022-12-19T06:12:15;7.60;99.90
44229;DHT22;29904;51.058;5.378;2022-12-19T06:14:41;7.60;99.90
44229;DHT22;29904;51.058;5.378;2022-12-19T06:17:07;7.60;99.90
44229;DHT22;29904;51.058;5.378;2022-12-19T06:19:33;7.60;99.90
44229;DHT22;29904;51.058;5.378;2022-12-19T06:21:58;7.60;99.90
44229;DHT22;29904;51.058;5.378;2022-12-19T06:24:26;7.70;99.90
44229;DHT22;29904;51.058;5.378;2022-12-19T06:26:52;7.70;99.90
44229;DHT22;29904;51.058;5.378;2022-12-19T06:29:18;7.70;99.90
44229;DHT22;29904;51.058;5.378;2022-12-19T06:31:43;7.70;99.90
44229;DHT22;29904;51.058;5.378;2022-12-19T06:34:09;7.70;99.90
44229;DHT22;29904;51.058;5.378;2022-12-19T06:36:36;7.70;99.90
44229;DHT22;29904;51.058;5.378;2022-12-19T06:39:02;7.70;99.90
44229;DHT22;29904;51.058;5.378;2022-12-19T06:41:28;7.70;99.90
44229;DHT22;29904;51.058;5.378;2022-12-19T06:44:14;7.70;99.90
44229;DHT22;29904;51.058;5.378;2022-12-19T06:46:40;7.70;99.90
44229;DHT22;29904;51.058;5.378;2022-12-19T06:49:06;7.70;99.90
44229;DHT22;29904;51.058;5.378;2022-12-19T06:51:34;7.70;99.90
44229;DHT22;29904;51.058;5.378;2022-12-19T06:54:00;7.70;99.90
44229;DHT22;29904;51.058;5.378;2022-12-19T06:56:26;7.70;99.90
44229;DHT22;29904;51.058;5.378;2022-12-19T06:58:52;7.70;99.90
44229;DHT22;29904;51.058;5.378;2022-12-19T07:01:52;7.70;99.90
44229;DHT22;29904;51.058;5.378;2022-12-19T07:07:22;7.80;99.90
44229;DHT22;29904;51.058;5.378;2022-12-19T07:09:48;7.80;99.90
44229;DHT22;29904;51.058;5.378;2022-12-19T07:12:14;7.80;99.90
44229;DHT22;29904;51.058;5.378;2022-12-19T07:14:39;7.80;99.90
44229;DHT22;29904;51.058;5.378;2022-12-19T07:17:05;7.80;99.90
44229;DHT22;29904;51.058;5.378;2022-12-19T07:19:31;7.80;99.90
44229;DHT22;29904;51.058;5.378;2022-12-19T07:21:59;7.90;99.90
44229;DHT22;29904;51.058;5.378;2022-12-19T07:24:25;7.90;99.90
44229;DHT22;29904;51.058;5.378;2022-12-19T07:26:51;7.90;99.90
44229;DHT22;29904;51.058;5.378;2022-12-19T07:29:17;8.00;99.90
44229;DHT22;29904;51.058;5.378;2022-12-19T07:31:43;8.00;99.90
44229;DHT22;29904;51.058;5.378;2022-12-19T07:34:08;8.00;99.90
44229;DHT22;29904;51.058;5.378;2022-12-19T07:36:34;8.00;99.90
44229;DHT22;29904;51.058;5.378;2022-12-19T07:39:00;8.10;99.90
44229;DHT22;29904;51.058;5.378;2022-12-19T07:41:26;8.10;99.90
44229;DHT22;29904;51.058;5.378;2022-12-19T07:43:52;8.10;99.90
44229;DHT22;29904;51.058;5.378;2022-12-19T07:46:17;8.10;99.90
44229;DHT22;29904;51.058;5.378;2022-12-19T07:48:43;8.10;99.90
44229;DHT22;29904;51.058;5.378;2022-12-19T07:51:09;8.10;99.90
44229;DHT22;29904;51.058;5.378;2022-12-19T07:53:35;8.10;99.90
44229;DHT22;29904;51.058;5.378;2022-12-19T07:56:00;8.10;99.90
44229;DHT22;29904;51.058;5.378;2022-12-19T07:58:26;8.20;99.90
44229;DHT22;29904;51.058;5.378;2022-12-19T08:00:57;8.20;99.90
44229;DHT22;29904;51.058;5.378;2022-12-19T08:03:25;8.20;99.90
44229;DHT22;29904;51.058;5.378;2022-12-19T08:05:51;8.20;99.90
44229;DHT22;29904;51.058;5.378;2022-12-19T08:08:17;8.30;99.90
44229;DHT22;29904;51.058;5.378;2022-12-19T08:10:43;8.30;99.90
44229;DHT22;29904;51.058;5.378;2022-12-19T08:13:08;8.30;99.90
44229;DHT22;29904;51.058;5.378;2022-12-19T08:15:34;8.40;99.90
44229;DHT22;29904;51.058;5.378;2022-12-19T08:18:00;8.40;99.90
44229;DHT22;29904;51.058;5.378;2022-12-19T08:20:27;8.50;99.90
44229;DHT22;29904;51.058;5.378;2022-12-19T08:22:53;8.50;99.90
44229;DHT22;29904;51.058;5.378;2022-12-19T08:25:19;8.50;99.90
44229;DHT22;29904;51.058;5.378;2022-12-19T08:27:44;8.50;99.90
44229;DHT22;29904;51.058;5.378;2022-12-19T08:30:11;8.60;99.90
44229;DHT22;29904;51.058;5.378;2022-12-19T08:32:38;8.60;99.90
44229;DHT22;29904;51.058;5.378;2022-12-19T08:35:05;8.70;99.90
44229;DHT22;29904;51.058;5.378;2022-12-19T08:37:31;8.70;99.90
44229;DHT22;29904;51.058;5.378;2022-12-19T08:39:57;8.70;99.90
44229;DHT22;29904;51.058;5.378;2022-12-19T08:42:23;8.80;99.90
44229;DHT22;29904;51.058;5.378;2022-12-19T08:44:50;8.80;99.90
44229;DHT22;29904;51.058;5.378;2022-12-19T08:47:16;8.80;99.90
44229;DHT22;29904;51.058;5.378;2022-12-19T08:49:42;8.90;99.90
44229;DHT22;29904;51.058;5.378;2022-12-19T08:52:10;8.90;99.90
44229;DHT22;29904;51.058;5.378;2022-12-19T08:54:35;8.90;99.90
44229;DHT22;29904;51.058;5.378;2022-12-19T08:57:01;9.00;99.90
44229;DHT22;29904;51.058;5.378;2022-12-19T08:59:27;9.00;99.90
44229;DHT22;29904;51.058;5.378;2022-12-19T09:01:53;9.00;99.90
44229;DHT22;29904;51.058;5.378;2022-12-19T09:04:19;9.00;99.90
44229;DHT22;29904;51.058;5.378;2022-12-19T09:06:44;9.00;99.90
44229;DHT22;29904;51.058;5.378;2022-12-19T09:09:10;9.10;99.90
44229;DHT22;29904;51.058;5.378;2022-12-19T09:11:36;9.10;99.90
44229;DHT22;29904;51.058;5.378;2022-12-19T09:14:01;9.10;99.90
44229;DHT22;29904;51.058;5.378;2022-12-19T09:16:30;9.10;99.90
44229;DHT22;29904;51.058;5.378;2022-12-19T09:18:56;9.10;99.90
44229;DHT22;29904;51.058;5.378;2022-12-19T09:21:25;9.10;99.90
44229;DHT22;29904;51.058;5.378;2022-12-19T09:23:53;9.20;99.90
44229;DHT22;29904;51.058;5.378;2022-12-19T09:26:21;9.20;99.90
44229;DHT22;29904;51.058;5.378;2022-12-19T09:28:47;9.20;99.90
44229;DHT22;29904;51.058;5.378;2022-12-19T09:31:19;9.20;99.90
44229;DHT22;29904;51.058;5.378;2022-12-19T09:33:45;9.30;99.90
44229;DHT22;29904;51.058;5.378;2022-12-19T09:36:17;9.30;99.90
44229;DHT22;29904;51.058;5.378;2022-12-19T09:38:44;9.40;99.90
44229;DHT22;29904;51.058;5.378;2022-12-19T09:44:00;9.40;99.90
44229;DHT22;29904;51.058;5.378;2022-12-19T09:49:01;9.50;99.90
44229;DHT22;29904;51.058;5.378;2022-12-19T09:51:39;9.50;99.90
44229;DHT22;29904;51.058;5.378;2022-12-19T09:54:47;9.60;99.90
44229;DHT22;29904;51.058;5.378;2022-12-19T09:57:17;9.60;99.90
44229;DHT22;29904;51.058;5.378;2022-12-19T09:59:56;9.60;99.90
44229;DHT22;29904;51.058;5.378;2022-12-19T10:07:50;9.80;99.90
44229;DHT22;29904;51.058;5.378;2022-12-19T10:10:19;9.80;99.90
44229;DHT22;29904;51.058;5.378;2022-12-19T10:18:51;9.90;99.90
44229;DHT22;29904;51.058;5.378;2022-12-19T10:26:52;10.10;99.90
44229;DHT22;29904;51.058;5.378;2022-12-19T10:34:40;10.20;99.90
44229;DHT22;29904;51.058;5.378;2022-12-19T10:37:28;10.20;99.90
44229;DHT22;29904;51.058;5.378;2022-12-19T10:45:56;10.20;99.90
44229;DHT22;29904;51.058;5.378;2022-12-19T10:48:23;10.20;99.90
44229;DHT22;29904;51.058;5.378;2022-12-19T10:50:49;10.20;99.90
44229;DHT22;29904;51.058;5.378;2022-12-19T10:53:24;10.20;99.90
44229;DHT22;29904;51.058;5.378;2022-12-19T10:55:51;10.30;99.90
44229;DHT22;29904;51.058;5.378;2022-12-19T10:58:25;10.30;99.90
44229;DHT22;29904;51.058;5.378;2022-12-19T11:03:33;10.30;99.90
44229;DHT22;29904;51.058;5.378;2022-12-19T11:05:59;10.30;99.90
44229;DHT22;29904;51.058;5.378;2022-12-19T11:11:10;10.30;99.90
44229;DHT22;29904;51.058;5.378;2022-12-19T11:16:04;10.40;99.90
44229;DHT22;29904;51.058;5.378;2022-12-19T11:24:05;10.60;99.90
44229;DHT22;29904;51.058;5.378;2022-12-19T11:31:43;10.70;99.90
44229;DHT22;29904;51.058;5.378;2022-12-19T11:34:18;10.70;99.90
44229;DHT22;29904;51.058;5.378;2022-12-19T11:39:45;10.70;99.90
44229;DHT22;29904;51.058;5.378;2022-12-19T11:42:20;10.70;99.90
44229;DHT22;29904;51.058;5.378;2022-12-19T11:50:24;10.90;99.90
44229;DHT22;29904;51.058;5.378;2022-12-19T11:52:57;10.90;99.90
44229;DHT22;29904;51.058;5.378;2022-12-19T11:55:35;10.90;99.90
44229;DHT22;29904;51.058;5.378;2022-12-19T11:58:04;10.90;99.90
44229;DHT22;29904;51.058;5.378;2022-12-19T12:00:30;10.90;99.90
44229;DHT22;29904;51.058;5.378;2022-12-19T12:03:52;10.90;99.90
44229;DHT22;29904;51.058;5.378;2022-12-19T12:06:15;10.90;99.90
44229;DHT22;29904;51.058;5.378;2022-12-19T12:08:57;10.90;99.90
44229;DHT22;29904;51.058;5.378;2022-12-19T12:11:51;11.00;99.90
44229;DHT22;29904;51.058;5.378;2022-12-19T12:14:23;11.10;99.90
44229;DHT22;29904;51.058;5.378;2022-12-19T12:26:04;11.10;99.90
44229;DHT22;29904;51.058;5.378;2022-12-19T12:34:27;11.20;99.90
44229;DHT22;29904;51.058;5.378;2022-12-19T12:39:43;11.30;99.90
44229;DHT22;29904;51.058;5.378;2022-12-19T12:45:33;11.30;99.90
44229;DHT22;29904;51.058;5.378;2022-12-19T12:47:59;11.30;99.90
44229;DHT22;29904;51.058;5.378;2022-12-19T12:50:25;11.40;99.90
44229;DHT22;29904;51.058;5.378;2022-12-19T12:52:55;11.40;99.90
44229;DHT22;29904;51.058;5.378;2022-12-19T12:55:30;11.40;99.90
44229;DHT22;29904;51.058;5.378;2022-12-19T12:57:57;11.40;99.90
44229;DHT22;29904;51.058;5.378;2022-12-19T13:03:16;11.40;99.90
44229;DHT22;29904;51.058;5.378;2022-12-19T13:08:43;11.40;99.90
44229;DHT22;29904;51.058;5.378;2022-12-19T13:11:14;11.50;99.90
44229;DHT22;29904;51.058;5.378;2022-12-19T13:13:58;11.60;99.90
44229;DHT22;29904;51.058;5.378;2022-12-19T13:30:13;11.70;99.90
44229;DHT22;29904;51.058;5.378;2022-12-19T13:37:38;11.60;99.90
44229;DHT22;29904;51.058;5.378;2022-12-19T13:43:04;11.50;99.90
44229;DHT22;29904;51.058;5.378;2022-12-19T13:45:58;11.40;99.90
44229;DHT22;29904;51.058;5.378;2022-12-19T13:48:36;11.40;99.90
44229;DHT22;29904;51.058;5.378;2022-12-19T13:51:07;11.30;99.90
44229;DHT22;29904;51.058;5.378;2022-12-19T13:53:34;11.30;99.90
44229;DHT22;29904;51.058;5.378;2022-12-19T13:56:04;11.30;99.90
44229;DHT22;29904;51.058;5.378;2022-12-19T13:58:32;11.30;99.90
44229;DHT22;29904;51.058;5.378;2022-12-19T14:01:08;11.30;99.90
44229;DHT22;29904;51.058;5.378;2022-12-19T14:03:42;11.30;99.90
44229;DHT22;29904;51.058;5.378;2022-12-19T14:06:21;11.30;99.90
44229;DHT22;29904;51.058;5.378;2022-12-19T14:08:50;11.30;99.90
44229;DHT22;29904;51.058;5.378;2022-12-19T14:11:18;11.30;99.90
44229;DHT22;29904;51.058;5.378;2022-12-19T14:13:50;11.30;99.90
44229;DHT22;29904;51.058;5.378;2022-12-19T14:16:36;11.30;99.90
44229;DHT22;29904;51.058;5.378;2022-12-19T14:19:14;11.20;99.90
44229;DHT22;29904;51.058;5.378;2022-12-19T14:21:41;11.20;99.90
44229;DHT22;29904;51.058;5.378;2022-12-19T14:24:14;11.30;99.90
44229;DHT22;29904;51.058;5.378;2022-12-19T14:26:42;11.30;99.90
44229;DHT22;29904;51.058;5.378;2022-12-19T14:29:17;11.30;99.90
44229;DHT22;29904;51.058;5.378;2022-12-19T14:31:46;11.30;99.90
44229;DHT22;29904;51.058;5.378;2022-12-19T14:34:22;11.30;99.90
44229;DHT22;29904;51.058;5.378;2022-12-19T14:36:55;11.30;99.90
44229;DHT22;29904;51.058;5.378;2022-12-19T14:39:26;11.20;99.90
44229;DHT22;29904;51.058;5.378;2022-12-19T14:42:04;11.20;99.90
44229;DHT22;29904;51.058;5.378;2022-12-19T14:44:54;11.20;99.90
44229;DHT22;29904;51.058;5.378;2022-12-19T14:49:48;11.20;99.90
44229;DHT22;29904;51.058;5.378;2022-12-19T14:52:42;11.20;99.90
44229;DHT22;29904;51.058;5.378;2022-12-19T14:57:47;11.10;99.90
44229;DHT22;29904;51.058;5.378;2022-12-19T15:02:49;11.00;99.90
44229;DHT22;29904;51.058;5.378;2022-12-19T15:05:15;11.00;99.90
44229;DHT22;29904;51.058;5.378;2022-12-19T15:07:47;10.90;99.90
44229;DHT22;29904;51.058;5.378;2022-12-19T15:10:17;10.90;99.90
44229;DHT22;29904;51.058;5.378;2022-12-19T15:15:54;10.80;99.90
44229;DHT22;29904;51.058;5.378;2022-12-19T15:21:03;10.70;99.90
44229;DHT22;29904;51.058;5.378;2022-12-19T15:23:30;10.60;99.90
44229;DHT22;29904;51.058;5.378;2022-12-19T15:26:00;10.60;99.90
44229;DHT22;29904;51.058;5.378;2022-12-19T15:28:40;10.60;99.90
44229;DHT22;29904;51.058;5.378;2022-12-19T15:31:30;10.50;99.90
44229;DHT22;29904;51.058;5.378;2022-12-19T15:33:57;10.40;99.90
44229;DHT22;29904;51.058;5.378;2022-12-19T15:36:23;10.40;99.90
44229;DHT22;29904;51.058;5.378;2022-12-19T15:38:49;10.30;99.90
44229;DHT22;29904;51.058;5.378;2022-12-19T15:41:21;10.20;99.90
44229;DHT22;29904;51.058;5.378;2022-12-19T15:43:48;10.20;99.90
44229;DHT22;29904;51.058;5.378;2022-12-19T15:46:14;10.20;99.90
44229;DHT22;29904;51.058;5.378;2022-12-19T15:48:44;10.20;99.90
44229;DHT22;29904;51.058;5.378;2022-12-19T15:51:13;10.20;99.90
44229;DHT22;29904;51.058;5.378;2022-12-19T15:53:39;10.10;99.90
44229;DHT22;29904;51.058;5.378;2022-12-19T15:58:50;10.10;99.90
44229;DHT22;29904;51.058;5.378;2022-12-19T16:01:17;10.10;99.90
44229;DHT22;29904;51.058;5.378;2022-12-19T16:03:42;10.10;99.90
44229;DHT22;29904;51.058;5.378;2022-12-19T16:06:12;10.10;99.90
44229;DHT22;29904;51.058;5.378;2022-12-19T16:08:39;10.20;99.90
44229;DHT22;29904;51.058;5.378;2022-12-19T16:11:05;10.20;99.90
44229;DHT22;29904;51.058;5.378;2022-12-19T16:13:32;10.20;99.90
44229;DHT22;29904;51.058;5.378;2022-12-19T16:15:59;10.30;99.90
44229;DHT22;29904;51.058;5.378;2022-12-19T16:18:27;10.30;99.90
44229;DHT22;29904;51.058;5.378;2022-12-19T16:20:53;10.40;99.90
44229;DHT22;29904;51.058;5.378;2022-12-19T16:23:19;10.40;99.90
44229;DHT22;29904;51.058;5.378;2022-12-19T16:25:50;10.50;99.90
44229;DHT22;29904;51.058;5.378;2022-12-19T16:28:25;10.50;99.90
44229;DHT22;29904;51.058;5.378;2022-12-19T16:30:54;10.60;99.90
44229;DHT22;29904;51.058;5.378;2022-12-19T16:33:23;10.50;99.90
44229;DHT22;29904;51.058;5.378;2022-12-19T16:35:50;10.60;99.90
44229;DHT22;29904;51.058;5.378;2022-12-19T16:38:17;10.60;99.90
44229;DHT22;29904;51.058;5.378;2022-12-19T16:40:43;10.70;99.90
44229;DHT22;29904;51.058;5.378;2022-12-19T16:43:16;10.70;99.90
44229;DHT22;29904;51.058;5.378;2022-12-19T16:45:44;10.70;99.90
44229;DHT22;29904;51.058;5.378;2022-12-19T16:48:22;10.70;99.90
44229;DHT22;29904;51.058;5.378;2022-12-19T16:50:51;10.70;99.90
44229;DHT22;29904;51.058;5.378;2022-12-19T16:53:17;10.70;99.90
44229;DHT22;29904;51.058;5.378;2022-12-19T16:55:44;10.70;99.90
44229;DHT22;29904;51.058;5.378;2022-12-19T16:58:15;10.70;99.90
44229;DHT22;29904;51.058;5.378;2022-12-19T17:00:41;10.70;99.90
44229;DHT22;29904;51.058;5.378;2022-12-19T17:03:15;10.60;99.90
44229;DHT22;29904;51.058;5.378;2022-12-19T17:05:47;10.50;99.90
44229;DHT22;29904;51.058;5.378;2022-12-19T17:08:13;10.40;99.90
44229;DHT22;29904;51.058;5.378;2022-12-19T17:10:40;10.40;99.90
44229;DHT22;29904;51.058;5.378;2022-12-19T17:13:09;10.40;99.90
44229;DHT22;29904;51.058;5.378;2022-12-19T17:15:36;10.40;99.90
44229;DHT22;29904;51.058;5.378;2022-12-19T17:18:09;10.40;99.90
44229;DHT22;29904;51.058;5.378;2022-12-19T17:20:39;10.40;99.90
44229;DHT22;29904;51.058;5.378;2022-12-19T17:23:17;10.40;99.90
44229;DHT22;29904;51.058;5.378;2022-12-19T17:25:45;10.50;99.90
44229;DHT22;29904;51.058;5.378;2022-12-19T17:28:11;10.50;99.90
44229;DHT22;29904;51.058;5.378;2022-12-19T17:30:38;10.50;99.90
44229;DHT22;29904;51.058;5.378;2022-12-19T17:33:05;10.60;99.90
44229;DHT22;29904;51.058;5.378;2022-12-19T17:35:35;10.60;99.90
44229;DHT22;29904;51.058;5.378;2022-12-19T17:38:01;10.60;99.90
44229;DHT22;29904;51.058;5.378;2022-12-19T17:40:30;10.70;99.90
44229;DHT22;29904;51.058;5.378;2022-12-19T17:42:56;10.70;99.90
44229;DHT22;29904;51.058;5.378;2022-12-19T17:45:27;10.70;99.90
44229;DHT22;29904;51.058;5.378;2022-12-19T17:47:53;10.70;99.90
44229;DHT22;29904;51.058;5.378;2022-12-19T17:50:25;10.70;99.90
44229;DHT22;29904;51.058;5.378;2022-12-19T17:52:52;10.70;99.90
44229;DHT22;29904;51.058;5.378;2022-12-19T17:55:25;10.70;99.90
44229;DHT22;29904;51.058;5.378;2022-12-19T17:57:52;10.70;99.90
44229;DHT22;29904;51.058;5.378;2022-12-19T18:00:20;10.60;99.90
44229;DHT22;29904;51.058;5.378;2022-12-19T18:02:47;10.60;99.90
44229;DHT22;29904;51.058;5.378;2022-12-19T18:05:34;10.50;99.90
44229;DHT22;29904;51.058;5.378;2022-12-19T18:08:01;10.60;99.90
44229;DHT22;29904;51.058;5.378;2022-12-19T18:10:30;10.60;99.90
44229;DHT22;29904;51.058;5.378;2022-12-19T18:12:56;10.70;99.90
44229;DHT22;29904;51.058;5.378;2022-12-19T18:15:23;10.70;99.90
44229;DHT22;29904;51.058;5.378;2022-12-19T18:17:50;10.70;99.90
44229;DHT22;29904;51.058;5.378;2022-12-19T18:20:30;10.80;99.90
44229;DHT22;29904;51.058;5.378;2022-12-19T18:22:58;10.80;99.90
44229;DHT22;29904;51.058;5.378;2022-12-19T18:25:28;10.90;99.90
44229;DHT22;29904;51.058;5.378;2022-12-19T18:27:55;10.90;99.90
44229;DHT22;29904;51.058;5.378;2022-12-19T18:30:23;10.90;99.90
44229;DHT22;29904;51.058;5.378;2022-12-19T18:32:58;11.00;99.90
44229;DHT22;29904;51.058;5.378;2022-12-19T18:35:36;11.00;99.90